TimePST,TemperatureF,Dew PointF,Humidity,Sea Level PressureIn,VisibilityMPH,Wind Direction,Wind SpeedMPH,Gust SpeedMPH,PrecipitationIn,Events,Conditions,WindDirDegrees,DateUTC
12:02 AM,44.6,39.2,81,29.92,2.5,South,3.5,-,0.02,Rain,Rain,170,2012-12-27 08:02:00
12:19 AM,44.6,39.2,81,29.92,3.0,South,4.6,-,0.06,Rain,Light Rain,190,2012-12-27 08:19:00
12:53 AM,45.0,39.9,82,29.94,10.0,SSW,4.6,-,0.09,Rain,Light Rain,200,2012-12-27 08:53:00
1:53 AM,45.0,39.9,82,29.97,10.0,SSW,5.8,-,0.04,Rain,Light Rain,200,2012-12-27 09:53:00
2:53 AM,45.0,39.9,82,29.99,10.0,SSE,3.5,-,0.00,Rain,Light Rain,160,2012-12-27 10:53:00
3:42 AM,44.6,39.2,81,30.00,10.0,SE,5.8,-,0.01,Rain,Light Rain,140,2012-12-27 11:42:00
3:53 AM,44.1,39.9,85,30.00,10.0,ESE,3.5,-,0.02,Rain,Light Rain,120,2012-12-27 11:53:00
4:53 AM,44.1,39.9,85,30.02,9.0,Calm,Calm,-,0.01,Rain,Light Rain,0,2012-12-27 12:53:00
5:53 AM,44.1,39.9,85,30.04,4.0,East,3.5,-,0.09,Rain,Light Rain,90,2012-12-27 13:53:00
6:53 AM,42.8,39.2,87,30.05,5.0,SSE,3.5,-,N/A,Rain,Light Rain,150,2012-12-27 14:53:00
7:53 AM,43.0,39.9,89,30.06,5.0,SE,3.5,-,0.01,Rain,Light Rain,130,2012-12-27 15:53:00
8:12 AM,42.8,39.2,87,30.07,8.0,Calm,Calm,-,0.01,,Overcast,0,2012-12-27 16:12:00
8:51 AM,42.8,37.4,81,30.09,10.0,South,3.5,-,0.01,,Overcast,170,2012-12-27 16:51:00
8:53 AM,43.0,37.9,82,30.09,10.0,SSE,3.5,-,0.01,,Overcast,150,2012-12-27 16:53:00
9:53 AM,43.0,37.9,82,30.11,10.0,Variable,3.5,-,N/A,,Overcast,0,2012-12-27 17:53:00
10:30 AM,42.8,37.4,81,30.12,10.0,South,3.5,-,N/A,,Overcast,190,2012-12-27 18:30:00
10:53 AM,43.0,39.0,86,30.12,10.0,Calm,Calm,-,N/A,,Overcast,0,2012-12-27 18:53:00
11:51 AM,44.6,39.2,81,30.12,10.0,SSW,4.6,-,N/A,,Overcast,200,2012-12-27 19:51:00
11:53 AM,44.1,39.0,82,30.12,10.0,Calm,Calm,-,N/A,,Overcast,0,2012-12-27 19:53:00
12:53 PM,45.0,39.0,80,30.13,10.0,Calm,Calm,-,N/A,,Overcast,0,2012-12-27 20:53:00
1:53 PM,46.0,39.0,76,30.12,10.0,South,5.8,-,N/A,,Overcast,190,2012-12-27 21:53:00
2:53 PM,46.9,39.9,77,30.13,10.0,SSE,3.5,-,0.00,,Overcast,160,2012-12-27 22:53:00
3:00 PM,46.4,39.2,76,30.13,10.0,South,6.9,-,N/A,,Overcast,180,2012-12-27 23:00:00
3:19 PM,46.4,37.4,71,30.14,10.0,South,4.6,-,N/A,,Overcast,180,2012-12-27 23:19:00
3:53 PM,46.4,37.4,71,30.14,10.0,South,5.8,-,N/A,,Overcast,180,2012-12-27 23:53:00
4:53 PM,44.1,36.0,73,30.15,10.0,SSE,4.6,-,N/A,,Mostly Cloudy,160,2012-12-28 00:53:00
5:53 PM,44.1,37.0,76,30.16,10.0,SSE,5.8,-,N/A,,Overcast,150,2012-12-28 01:53:00
6:53 PM,44.1,36.0,73,30.15,10.0,SE,5.8,-,N/A,,Overcast,130,2012-12-28 02:53:00
7:53 PM,43.0,37.0,80,30.15,10.0,SE,8.1,-,N/A,,Overcast,130,2012-12-28 03:53:00
8:53 PM,41.0,37.0,86,30.15,10.0,SSE,5.8,-,N/A,,Overcast,160,2012-12-28 04:53:00
9:53 PM,42.1,37.0,82,30.16,10.0,SE,5.8,-,N/A,,Mostly Cloudy,130,2012-12-28 05:53:00
10:53 PM,41.0,36.0,82,30.17,10.0,SE,6.9,-,N/A,,Overcast,140,2012-12-28 06:53:00
11:53 PM,41.0,36.0,82,30.17,10.0,SE,4.6,-,N/A,,Overcast,140,2012-12-28 07:53:00